Portland, Oregon
Current Conditions -  °F | °C
As of 5:53 PM on Friday 19 Dec 2014 (Local Time) from KPDX Reporting Station
Overcast Overcast  
Wind Chill: 10°   Ceiling: 6000
Heat Index: 10°   Visibility: 10mi
Dew Point:   Wind: 6mph
Humidity: 80%   Direction: 120°ESE
Pressure: 29.99"   Gusts: NA
Location:  45.51°N, 122.67°W
Report Text: KPDX 200153Z 12005KT 10SM SCT040 OVC060 10/07 A2999 RMK AO2 SLP155 T01000067
Loading
Personal Weather Stations






























Interactive Weather Map New forecast layout! Learn more

10-Day Weather Forecast

Advertisements
Track Severe Weather on mobile